Thunder radar more information blitzortung!


Radar de pluja more information rain snow radar


Visita la nostra xarxa de llocs de meteo:

Template documentation
and downloads

And another site



No particular awareness of the weather is required.    There are no Weather-warnings

Pagina Historial Weather Underground text

Diari Resum February 10, 2018 Unitats:  Tant    Imperial   Mètric
« Previous Dia
SegĂźent Dia »
Diari Setmana Mensual Anual Personalitzada
  Maxima: Minima: Media:
Temperatura: TemperatureC °F /  -17.8 °C -0.1 °F /  -17.8 °C 5.4 °F /  -14.8 °C
Punt de rosada: DewpointC °F /  -17.8 °C -13.3 °F /  -25.2 °C -7.4 °F /  -21.9 °C
Humitat: Humidity % 24 % 42 %
Wind Speed: WindSpeedKMH mph /  0 km/h - 4.5 mph /  7.2 km/h
RĂ fegues de vent: WindSpeedGustKMH mph /  0 km/h - -
Vent:- - SSW
Pression baro: PressurehPa in /  0 hPa 1013.8 in /  34327.3 hPa -
Precipitacions: 0.0 in /  0 mm    
Historical Graphs
 
 
Dades de taula per February 10, 2018
Temps Temperatura Punt de rosada Pression baro Vent Wind Speed RĂ fegues de vent Humitat Rainfall Rate (Hourly)
TemperatureC °F /  -17.8 °C DewpointC °F /  -17.8 °C PressurehPa in /  0 hPa Calm     Humidity % HourlyPrecipMM in /  0 mm
00:01 3.3 °F /  -15.9 °C -4.7 °F /  -20.4 °C 1015.8 in /  34395 hPa NNE 3.7 mph /  6 km/h 3.7 mph /  6 km/h 56 % 0.0 in /  0 mm
00:06 3.4 °F /  -15.9 °C -4.8 °F /  -20.4 °C 1015.8 in /  34395 hPa NNW 3.7 mph /  6 km/h 3.7 mph /  6 km/h 55 % 0.0 in /  0 mm
00:11 3.4 °F /  -15.9 °C -4.6 °F /  -20.3 °C 1015.8 in /  34395 hPa NNE 7.4 mph /  11.9 km/h 7.4 mph /  11.9 km/h 56 % 0.0 in /  0 mm
00:16 3.3 °F /  -15.9 °C -4.7 °F /  -20.4 °C 1015.8 in /  34395 hPa WNW 3.7 mph /  6 km/h 3.7 mph /  6 km/h 56 % 0.0 in /  0 mm
00:21 3.2 °F /  -16 °C -4.7 °F /  -20.4 °C 1015.8 in /  34395 hPa WNW 3.7 mph /  6 km/h 3.7 mph /  6 km/h 56 % 0.0 in /  0 mm
00:26 3.2 °F /  -16 °C -5.0 °F /  -20.6 °C 1015.8 in /  34395 hPa WSW 5.6 mph /  9 km/h 5.6 mph /  9 km/h 55 % 0.0 in /  0 mm
00:31 3.2 °F /  -16 °C -4.7 °F /  -20.4 °C 1015.8 in /  34395 hPa WSW 3.7 mph /  6 km/h 3.7 mph /  6 km/h 56 % 0.0 in /  0 mm
00:36 3.1 °F /  -16.1 °C -4.8 °F /  -20.4 °C 1015.8 in /  34395 hPa WSW 3.7 mph /  6 km/h 3.7 mph /  6 km/h 56 % 0.0 in /  0 mm
00:41 3.0 °F /  -16.1 °C -4.9 °F /  -20.5 °C 1015.8 in /  34395 hPa Calm     56 % 0.0 in /  0 mm
00:46 2.8 °F /  -16.2 °C -5.1 °F /  -20.6 °C 1015.8 in /  34395 hPa SSE 3.9 mph /  6.3 km/h 3.9 mph /  6.3 km/h 56 % 0.0 in /  0 mm
00:51 2.7 °F /  -16.3 °C -5.0 °F /  -20.6 °C 1015.8 in /  34395 hPa SSE 3.2 mph /  5.1 km/h 3.2 mph /  5.1 km/h 57 % 0.0 in /  0 mm
00:56 2.7 °F /  -16.3 °C -5.0 °F /  -20.6 °C 1015.8 in /  34395 hPa Calm     57 % 0.0 in /  0 mm
01:01 3.0 °F /  -16.1 °C -4.7 °F /  -20.4 °C 1015.8 in /  34395 hPa NE 3.7 mph /  6 km/h 3.7 mph /  6 km/h 57 % 0.0 in /  0 mm
01:06 2.9 °F /  -16.2 °C -4.8 °F /  -20.4 °C 1015.8 in /  34395 hPa NNE 5.6 mph /  9 km/h 5.6 mph /  9 km/h 57 % 0.0 in /  0 mm
01:11 2.8 °F /  -16.2 °C -4.9 °F /  -20.5 °C 1015.8 in /  34395 hPa NNW 5.8 mph /  9.3 km/h 5.8 mph /  9.3 km/h 57 % 0.0 in /  0 mm
01:16 2.9 °F /  -16.2 °C -4.8 °F /  -20.4 °C 1014.8 in /  34361.1 hPa North 7.4 mph /  11.9 km/h 7.4 mph /  11.9 km/h 57 % 0.0 in /  0 mm
01:21 3.1 °F /  -16.1 °C -4.4 °F /  -20.2 °C 1014.8 in /  34361.1 hPa SW 7.4 mph /  11.9 km/h 7.4 mph /  11.9 km/h 58 % 0.0 in /  0 mm
01:26 3.2 °F /  -16 °C -4.5 °F /  -20.3 °C 1014.8 in /  34361.1 hPa North 7.4 mph /  11.9 km/h 7.4 mph /  11.9 km/h 57 % 0.0 in /  0 mm
01:31 3.4 °F /  -15.9 °C -4.3 °F /  -20.2 °C 1015.8 in /  34395 hPa NE 7.4 mph /  11.9 km/h 7.4 mph /  11.9 km/h 57 % 0.0 in /  0 mm
01:36 3.7 °F /  -15.7 °C -4.1 °F /  -20.1 °C 1015.8 in /  34395 hPa NE 3.7 mph /  6 km/h 3.7 mph /  6 km/h 57 % 0.0 in /  0 mm
01:41 3.5 °F /  -15.8 °C -4.2 °F /  -20.1 °C 1015.8 in /  34395 hPa NNE 5.6 mph /  9 km/h 5.6 mph /  9 km/h 57 % 0.0 in /  0 mm
01:46 3.2 °F /  -16 °C -4.5 °F /  -20.3 °C 1015.8 in /  34395 hPa ENE 3.7 mph /  6 km/h 3.7 mph /  6 km/h 57 % 0.0 in /  0 mm
01:51 3.1 °F /  -16.1 °C -4.6 °F /  -20.3 °C 1015.8 in /  34395 hPa NNE 3.9 mph /  6.3 km/h 3.9 mph /  6.3 km/h 57 % 0.0 in /  0 mm
01:56 3.0 °F /  -16.1 °C -4.7 °F /  -20.4 °C 1015.8 in /  34395 hPa SSW 3.2 mph /  5.1 km/h 3.2 mph /  5.1 km/h 57 % 0.0 in /  0 mm
02:01 2.9 °F /  -16.2 °C -4.8 °F /  -20.4 °C 1015.8 in /  34395 hPa WSW 3.9 mph /  6.3 km/h 4.2 mph /  6.8 km/h 57 % 0.0 in /  0 mm
02:06 2.8 °F /  -16.2 °C -4.7 °F /  -20.4 °C 1015.8 in /  34395 hPa WSW 1.9 mph /  3.1 km/h 2.3 mph /  3.7 km/h 58 % 0.0 in /  0 mm
02:11 2.7 °F /  -16.3 °C -4.8 °F /  -20.4 °C 1015.8 in /  34395 hPa ENE 3.7 mph /  6 km/h 3.7 mph /  6 km/h 58 % 0.0 in /  0 mm
02:16 2.7 °F /  -16.3 °C -4.8 °F /  -20.4 °C 1015.8 in /  34395 hPa NNW 1.9 mph /  3.1 km/h 1.9 mph /  3.1 km/h 58 % 0.0 in /  0 mm
02:21 2.5 °F /  -16.4 °C -4.9 °F /  -20.5 °C 1015.8 in /  34395 hPa WNW 3.2 mph /  5.1 km/h 3.2 mph /  5.1 km/h 58 % 0.0 in /  0 mm
02:26 2.5 °F /  -16.4 °C -4.9 °F /  -20.5 °C 1015.8 in /  34395 hPa WSW 5.6 mph /  9 km/h 5.6 mph /  9 km/h 58 % 0.0 in /  0 mm
02:31 2.2 °F /  -16.6 °C -5.2 °F /  -20.7 °C 1015.8 in /  34395 hPa WSW 3.7 mph /  6 km/h 3.7 mph /  6 km/h 58 % 0.0 in /  0 mm
02:36 2.1 °F /  -16.6 °C -5.1 °F /  -20.6 °C 1015.8 in /  34395 hPa WSW 3.7 mph /  6 km/h 3.7 mph /  6 km/h 59 % 0.0 in /  0 mm
02:41 2.1 °F /  -16.6 °C -5.1 °F /  -20.6 °C 1015.8 in /  34395 hPa SW 3.7 mph /  6 km/h 3.7 mph /  6 km/h 59 % 0.0 in /  0 mm
02:46 2.0 °F /  -16.7 °C -5.2 °F /  -20.7 °C 1014.8 in /  34361.1 hPa WSW 3.7 mph /  6 km/h 3.7 mph /  6 km/h 59 % 0.0 in /  0 mm
02:51 1.9 °F /  -16.7 °C -5.1 °F /  -20.6 °C 1014.8 in /  34361.1 hPa WSW 2.6 mph /  4.2 km/h   60 % 0.0 in /  0 mm
02:56 1.9 °F /  -16.7 °C -5.1 °F /  -20.6 °C 1014.8 in /  34361.1 hPa WSW 1.9 mph /  3.1 km/h   60 % 0.0 in /  0 mm
03:01 1.8 °F /  -16.8 °C -4.9 °F /  -20.5 °C 1014.8 in /  34361.1 hPa Calm     61 % 0.0 in /  0 mm
03:06 1.7 °F /  -16.8 °C -5.0 °F /  -20.6 °C 1014.8 in /  34361.1 hPa Calm     61 % 0.0 in /  0 mm
03:11 1.7 °F /  -16.8 °C -5.0 °F /  -20.6 °C 1014.8 in /  34361.1 hPa WNW 3.7 mph /  6 km/h 3.7 mph /  6 km/h 61 % 0.0 in /  0 mm
03:16 1.7 °F /  -16.8 °C -5.0 °F /  -20.6 °C 1015.8 in /  34395 hPa NNE 2.3 mph /  3.7 km/h 2.3 mph /  3.7 km/h 61 % 0.0 in /  0 mm
03:21 1.7 °F /  -16.8 °C -5.0 °F /  -20.6 °C 1015.8 in /  34395 hPa WNW 3.7 mph /  6 km/h 3.7 mph /  6 km/h 61 % 0.0 in /  0 mm
03:26 1.7 °F /  -16.8 °C -5.0 °F /  -20.6 °C 1015.8 in /  34395 hPa Calm     61 % 0.0 in /  0 mm
03:31 1.7 °F /  -16.8 °C -4.8 °F /  -20.4 °C 1015.8 in /  34395 hPa NNE 3.7 mph /  6 km/h 3.7 mph /  6 km/h 62 % 0.0 in /  0 mm
03:36 1.5 °F /  -16.9 °C -5.0 °F /  -20.6 °C 1015.8 in /  34395 hPa NE 1.9 mph /  3.1 km/h 1.9 mph /  3.1 km/h 62 % 0.0 in /  0 mm
03:41 1.5 °F /  -16.9 °C -5.0 °F /  -20.6 °C 1015.8 in /  34395 hPa WNW 3.7 mph /  6 km/h 3.7 mph /  6 km/h 62 % 0.0 in /  0 mm
03:46 1.6 °F /  -16.9 °C -4.9 °F /  -20.5 °C 1015.8 in /  34395 hPa NNW 1.9 mph /  3.1 km/h   62 % 0.0 in /  0 mm
03:51 1.6 °F /  -16.9 °C -4.9 °F /  -20.5 °C 1015.8 in /  34395 hPa WNW 3.7 mph /  6 km/h 3.7 mph /  6 km/h 62 % 0.0 in /  0 mm
03:56 1.7 °F /  -16.8 °C -4.8 °F /  -20.4 °C 1015.8 in /  34395 hPa NNE 3.7 mph /  6 km/h 3.7 mph /  6 km/h 62 % 0.0 in /  0 mm
04:01 1.6 °F /  -16.9 °C -5.1 °F /  -20.6 °C 1015.8 in /  34395 hPa SW 3.7 mph /  6 km/h 3.7 mph /  6 km/h 61 % 0.0 in /  0 mm
04:06 1.4 °F /  -17 °C -5.3 °F /  -20.7 °C 1015.8 in /  34395 hPa WSW 3.7 mph /  6 km/h 3.7 mph /  6 km/h 61 % 0.0 in /  0 mm
04:11 1.3 °F /  -17.1 °C -5.2 °F /  -20.7 °C 1015.8 in /  34395 hPa Calm     62 % 0.0 in /  0 mm
04:16 1.2 °F /  -17.1 °C -5.3 °F /  -20.7 °C 1015.8 in /  34395 hPa Calm     62 % 0.0 in /  0 mm
04:21 1.1 °F /  -17.2 °C -5.4 °F /  -20.8 °C 1015.8 in /  34395 hPa WSW 3.7 mph /  6 km/h   62 % 0.0 in /  0 mm
04:26 1.1 °F /  -17.2 °C -5.4 °F /  -20.8 °C 1015.8 in /  34395 hPa SW 2.6 mph /  4.2 km/h 2.6 mph /  4.2 km/h 62 % 0.0 in /  0 mm
04:31 1.1 °F /  -17.2 °C -5.6 °F /  -20.9 °C 1015.8 in /  34395 hPa WSW 3.9 mph /  6.3 km/h 3.9 mph /  6.3 km/h 61 % 0.0 in /  0 mm
04:36 1.0 °F /  -17.2 °C -5.5 °F /  -20.8 °C 1015.8 in /  34395 hPa SW 3.9 mph /  6.3 km/h 3.9 mph /  6.3 km/h 62 % 0.0 in /  0 mm
04:41 0.8 °F /  -17.3 °C -5.7 °F /  -20.9 °C 1015.8 in /  34395 hPa ESE 1.9 mph /  3.1 km/h 1.9 mph /  3.1 km/h 62 % 0.0 in /  0 mm
04:46 0.7 °F /  -17.4 °C -5.6 °F /  -20.9 °C 1015.8 in /  34395 hPa SW 1.9 mph /  3.1 km/h   63 % 0.0 in /  0 mm
04:51 0.7 °F /  -17.4 °C -5.8 °F /  -21 °C 1015.8 in /  34395 hPa SW 1.9 mph /  3.1 km/h   62 % 0.0 in /  0 mm
04:56 0.7 °F /  -17.4 °C -5.6 °F /  -20.9 °C 1015.8 in /  34395 hPa Calm     63 % 0.0 in /  0 mm
05:01 0.6 °F /  -17.4 °C -5.7 °F /  -20.9 °C 1015.8 in /  34395 hPa NE 3.7 mph /  6 km/h 3.7 mph /  6 km/h 63 % 0.0 in /  0 mm
05:06 0.4 °F /  -17.6 °C -5.8 °F /  -21 °C 1015.8 in /  34395 hPa NE 3.7 mph /  6 km/h 3.7 mph /  6 km/h 63 % 0.0 in /  0 mm
05:11 0.3 °F /  -17.6 °C -5.9 °F /  -21.1 °C 1015.8 in /  34395 hPa West 3.7 mph /  6 km/h 3.7 mph /  6 km/h 63 % 0.0 in /  0 mm
05:16 0.2 °F /  -17.7 °C -6.0 °F /  -21.1 °C 1014.8 in /  34361.1 hPa WNW 3.7 mph /  6 km/h 3.7 mph /  6 km/h 63 % 0.0 in /  0 mm
05:21 0.2 °F /  -17.7 °C -6.0 °F /  -21.1 °C 1014.8 in /  34361.1 hPa WNW 1.9 mph /  3.1 km/h   63 % 0.0 in /  0 mm
05:26 0.1 °F /  -17.7 °C -6.1 °F /  -21.2 °C 1014.8 in /  34361.1 hPa WSW 3.7 mph /  6 km/h 3.7 mph /  6 km/h 63 % 0.0 in /  0 mm
05:31 0.0 °F /  -17.8 °C -6.2 °F /  -21.2 °C 1014.8 in /  34361.1 hPa Calm     63 % 0.0 in /  0 mm
05:36 -0.1 °F /  -17.8 °C -6.1 °F /  -21.2 °C 1014.8 in /  34361.1 hPa Calm     64 % 0.0 in /  0 mm
05:41 0.0 °F /  -17.8 °C -6.0 °F /  -21.1 °C 1014.8 in /  34361.1 hPa NW 3.7 mph /  6 km/h 3.7 mph /  6 km/h 64 % 0.0 in /  0 mm
05:46 0.4 °F /  -17.6 °C -6.1 °F /  -21.2 °C 1015.8 in /  34395 hPa North 3.7 mph /  6 km/h 3.7 mph /  6 km/h 62 % 0.0 in /  0 mm
05:51 0.7 °F /  -17.4 °C -5.9 °F /  -21.1 °C 1015.8 in /  34395 hPa NNE 2.6 mph /  4.2 km/h 2.6 mph /  4.2 km/h 61 % 0.0 in /  0 mm
05:56 1.2 °F /  -17.1 °C -5.7 °F /  -20.9 °C 1015.8 in /  34395 hPa NNE 7.4 mph /  11.9 km/h 7.4 mph /  11.9 km/h 60 % 0.0 in /  0 mm
06:01 1.5 °F /  -16.9 °C -5.7 °F /  -20.9 °C 1015.8 in /  34395 hPa NNE 3.7 mph /  6 km/h 3.7 mph /  6 km/h 59 % 0.0 in /  0 mm
06:06 1.5 °F /  -16.9 °C -5.9 °F /  -21.1 °C 1015.8 in /  34395 hPa WSW 5.8 mph /  9.3 km/h 5.8 mph /  9.3 km/h 58 % 0.0 in /  0 mm
06:11 0.9 °F /  -17.3 °C -6.4 °F /  -21.3 °C 1015.8 in /  34395 hPa West 3.7 mph /  6 km/h 3.7 mph /  6 km/h 58 % 0.0 in /  0 mm
06:16 0.5 °F /  -17.5 °C -6.6 °F /  -21.4 °C 1015.8 in /  34395 hPa WSW 4.2 mph /  6.8 km/h 4.2 mph /  6.8 km/h 59 % 0.0 in /  0 mm
06:21 0.6 °F /  -17.4 °C -6.5 °F /  -21.4 °C 1015.8 in /  34395 hPa WSW 5.6 mph /  9 km/h 5.6 mph /  9 km/h 59 % 0.0 in /  0 mm
06:26 0.6 °F /  -17.4 °C -6.7 °F /  -21.5 °C 1015.8 in /  34395 hPa West 1.9 mph /  3.1 km/h 1.9 mph /  3.1 km/h 58 % 0.0 in /  0 mm
06:31 0.7 °F /  -17.4 °C -6.6 °F /  -21.4 °C 1015.8 in /  34395 hPa NNW 3.7 mph /  6 km/h 3.7 mph /  6 km/h 58 % 0.0 in /  0 mm
06:36 0.9 °F /  -17.3 °C -6.7 °F /  -21.5 °C 1015.8 in /  34395 hPa NNE 3.9 mph /  6.3 km/h 3.9 mph /  6.3 km/h 57 % 0.0 in /  0 mm
06:41 1.2 °F /  -17.1 °C -6.6 °F /  -21.4 °C 1015.8 in /  34395 hPa WNW 1.9 mph /  3.1 km/h   56 % 0.0 in /  0 mm
06:46 1.4 °F /  -17 °C -6.7 °F /  -21.5 °C 1015.8 in /  34395 hPa ENE 3.7 mph /  6 km/h 3.7 mph /  6 km/h 55 % 0.0 in /  0 mm
06:51 1.4 °F /  -17 °C -6.7 °F /  -21.5 °C 1015.8 in /  34395 hPa WNW 3.7 mph /  6 km/h   55 % 0.0 in /  0 mm
06:56 1.6 °F /  -16.9 °C -6.7 °F /  -21.5 °C 1015.8 in /  34395 hPa ENE 3.2 mph /  5.1 km/h 3.2 mph /  5.1 km/h 54 % 0.0 in /  0 mm
07:01 1.5 °F /  -16.9 °C -7.1 °F /  -21.7 °C 1015.8 in /  34395 hPa NE 5.6 mph /  9 km/h 5.6 mph /  9 km/h 53 % 0.0 in /  0 mm
07:06 0.8 °F /  -17.3 °C -7.4 °F /  -21.9 °C 1015.8 in /  34395 hPa East 5.6 mph /  9 km/h 5.6 mph /  9 km/h 54 % 0.0 in /  0 mm
07:11 0.5 °F /  -17.5 °C -7.5 °F /  -21.9 °C 1015.8 in /  34395 hPa NNE 3.7 mph /  6 km/h 3.7 mph /  6 km/h 55 % 0.0 in /  0 mm
07:16 0.5 °F /  -17.5 °C -7.5 °F /  -21.9 °C 1015.8 in /  34395 hPa WNW 2.6 mph /  4.2 km/h 2.6 mph /  4.2 km/h 55 % 0.0 in /  0 mm
07:21 0.6 °F /  -17.4 °C -7.4 °F /  -21.9 °C 1015.8 in /  34395 hPa West 5.6 mph /  9 km/h 5.6 mph /  9 km/h 55 % 0.0 in /  0 mm
07:26 0.6 °F /  -17.4 °C -7.4 °F /  -21.9 °C 1015.8 in /  34395 hPa WSW 5.6 mph /  9 km/h 5.6 mph /  9 km/h 55 % 0.0 in /  0 mm
07:31 0.5 °F /  -17.5 °C -7.5 °F /  -21.9 °C 1014.8 in /  34361.1 hPa West 7.4 mph /  11.9 km/h 7.4 mph /  11.9 km/h 55 % 0.0 in /  0 mm
07:36 0.6 °F /  -17.4 °C -7.4 °F /  -21.9 °C 1014.8 in /  34361.1 hPa ENE 1.9 mph /  3.1 km/h 1.9 mph /  3.1 km/h 55 % 0.0 in /  0 mm
07:41 0.8 °F /  -17.3 °C -7.4 °F /  -21.9 °C 1014.8 in /  34361.1 hPa ESE 5.6 mph /  9 km/h 5.6 mph /  9 km/h 54 % 0.0 in /  0 mm
07:46 0.6 °F /  -17.4 °C -7.7 °F /  -22.1 °C 1015.8 in /  34395 hPa NNE 9.3 mph /  15 km/h 9.3 mph /  15 km/h 54 % 0.0 in /  0 mm
07:51 0.6 °F /  -17.4 °C -7.4 °F /  -21.9 °C 1015.8 in /  34395 hPa ESE 2.3 mph /  3.7 km/h 2.3 mph /  3.7 km/h 55 % 0.0 in /  0 mm
07:56 0.8 °F /  -17.3 °C -7.4 °F /  -21.9 °C 1015.8 in /  34395 hPa Calm     54 % 0.0 in /  0 mm
08:01 1.0 °F /  -17.2 °C -7.3 °F /  -21.8 °C 1015.8 in /  34395 hPa WNW 7.4 mph /  11.9 km/h 7.4 mph /  11.9 km/h 54 % 0.0 in /  0 mm
08:06 1.0 °F /  -17.2 °C -7.3 °F /  -21.8 °C 1015.8 in /  34395 hPa West 3.7 mph /  6 km/h 3.7 mph /  6 km/h 54 % 0.0 in /  0 mm
08:11 1.5 °F /  -16.9 °C -6.8 °F /  -21.6 °C 1015.8 in /  34395 hPa NW 5.6 mph /  9 km/h 5.6 mph /  9 km/h 54 % 0.0 in /  0 mm
08:16 1.6 °F /  -16.9 °C -6.9 °F /  -21.6 °C 1015.8 in /  34395 hPa WNW 7.4 mph /  11.9 km/h 7.4 mph /  11.9 km/h 53 % 0.0 in /  0 mm
08:21 1.8 °F /  -16.8 °C -7.0 °F /  -21.7 °C 1015.8 in /  34395 hPa NNW 3.7 mph /  6 km/h 3.7 mph /  6 km/h 52 % 0.0 in /  0 mm
08:26 1.9 °F /  -16.7 °C -6.9 °F /  -21.6 °C 1015.8 in /  34395 hPa WSW 1.9 mph /  3.1 km/h   52 % 0.0 in /  0 mm
08:31 2.2 °F /  -16.6 °C -6.9 °F /  -21.6 °C 1015.8 in /  34395 hPa ENE 3.9 mph /  6.3 km/h 3.9 mph /  6.3 km/h 51 % 0.0 in /  0 mm
08:36 2.2 °F /  -16.6 °C -6.9 °F /  -21.6 °C 1015.8 in /  34395 hPa East 5.6 mph /  9 km/h 5.6 mph /  9 km/h 51 % 0.0 in /  0 mm
08:41 2.1 °F /  -16.6 °C -6.7 °F /  -21.5 °C 1015.8 in /  34395 hPa NNE 4.7 mph /  7.6 km/h 4.7 mph /  7.6 km/h 52 % 0.0 in /  0 mm
08:46 2.2 °F /  -16.6 °C -6.7 °F /  -21.5 °C 1015.8 in /  34395 hPa NNE 1.9 mph /  3.1 km/h   52 % 0.0 in /  0 mm
08:51 2.7 °F /  -16.3 °C -6.2 °F /  -21.2 °C 1015.8 in /  34395 hPa NNE 1.9 mph /  3.1 km/h   52 % 0.0 in /  0 mm
08:56 2.9 °F /  -16.2 °C -6.0 °F /  -21.1 °C 1015.8 in /  34395 hPa WSW 1.9 mph /  3.1 km/h   52 % 0.0 in /  0 mm
09:01 3.6 °F /  -15.8 °C -5.3 °F /  -20.7 °C 1016.8 in /  34428.8 hPa ENE 3.2 mph /  5.1 km/h   52 % 0.0 in /  0 mm
09:06 3.7 °F /  -15.7 °C -5.5 °F /  -20.8 °C 1016.8 in /  34428.8 hPa East 3.7 mph /  6 km/h 3.7 mph /  6 km/h 51 % 0.0 in /  0 mm
09:11 3.8 °F /  -15.7 °C -5.4 °F /  -20.8 °C 1016.8 in /  34428.8 hPa NNE 6.9 mph /  11.1 km/h 6.9 mph /  11.1 km/h 51 % 0.0 in /  0 mm
09:16 3.8 °F /  -15.7 °C -5.4 °F /  -20.8 °C 1016.8 in /  34428.8 hPa NE 2.6 mph /  4.2 km/h 2.6 mph /  4.2 km/h 51 % 0.0 in /  0 mm
09:21 4.0 °F /  -15.6 °C -5.2 °F /  -20.7 °C 1016.8 in /  34428.8 hPa ESE 1.9 mph /  3.1 km/h   51 % 0.0 in /  0 mm
09:26 4.5 °F /  -15.3 °C -4.8 °F /  -20.4 °C 1016.8 in /  34428.8 hPa Calm     51 % 0.0 in /  0 mm
09:31 4.4 °F /  -15.3 °C -4.9 °F /  -20.5 °C 1016.8 in /  34428.8 hPa WSW 3.9 mph /  6.3 km/h 3.9 mph /  6.3 km/h 51 % 0.0 in /  0 mm
09:36 4.2 °F /  -15.4 °C -5.1 °F /  -20.6 °C 1016.8 in /  34428.8 hPa WSW 3.9 mph /  6.3 km/h 3.9 mph /  6.3 km/h 51 % 0.0 in /  0 mm
09:41 3.9 °F /  -15.6 °C -5.3 °F /  -20.7 °C 1016.8 in /  34428.8 hPa WSW 3.7 mph /  6 km/h 3.7 mph /  6 km/h 51 % 0.0 in /  0 mm
09:46 4.5 °F /  -15.3 °C -4.8 °F /  -20.4 °C 1015.8 in /  34395 hPa SW 3.9 mph /  6.3 km/h 3.9 mph /  6.3 km/h 51 % 0.0 in /  0 mm
09:51 4.7 °F /  -15.2 °C -4.6 °F /  -20.3 °C 1015.8 in /  34395 hPa SW 3.7 mph /  6 km/h 3.7 mph /  6 km/h 51 % 0.0 in /  0 mm
09:56 4.8 °F /  -15.1 °C -4.8 °F /  -20.4 °C 1015.8 in /  34395 hPa WSW 4.7 mph /  7.6 km/h 4.7 mph /  7.6 km/h 50 % 0.0 in /  0 mm
10:01 5.0 °F /  -15 °C -4.6 °F /  -20.3 °C 1015.8 in /  34395 hPa WSW 3.7 mph /  6 km/h 3.7 mph /  6 km/h 50 % 0.0 in /  0 mm
10:06 5.4 °F /  -14.8 °C -4.5 °F /  -20.3 °C 1015.8 in /  34395 hPa WNW 13.0 mph /  20.9 km/h 13.0 mph /  20.9 km/h 49 % 0.0 in /  0 mm
10:11 6.1 °F /  -14.4 °C -4.4 °F /  -20.2 °C 1015.8 in /  34395 hPa WSW 9.3 mph /  15 km/h 9.3 mph /  15 km/h 47 % 0.0 in /  0 mm
10:16 6.5 °F /  -14.2 °C -4.3 °F /  -20.2 °C 1015.8 in /  34395 hPa NE 9.3 mph /  15 km/h 9.3 mph /  15 km/h 46 % 0.0 in /  0 mm
10:21 6.4 °F /  -14.2 °C -4.7 °F /  -20.4 °C 1015.8 in /  34395 hPa East 9.7 mph /  15.6 km/h 9.7 mph /  15.6 km/h 45 % 0.0 in /  0 mm
10:26 6.7 °F /  -14.1 °C -5.0 °F /  -20.6 °C 1015.8 in /  34395 hPa East 10.0 mph /  16.1 km/h 10.0 mph /  16.1 km/h 43 % 0.0 in /  0 mm
10:31 6.2 °F /  -14.3 °C -5.5 °F /  -20.8 °C 1015.8 in /  34395 hPa ESE 9.3 mph /  15 km/h 9.3 mph /  15 km/h 43 % 0.0 in /  0 mm
10:36 6.4 °F /  -14.2 °C -5.3 °F /  -20.7 °C 1015.8 in /  34395 hPa ESE 6.4 mph /  10.3 km/h 6.4 mph /  10.3 km/h 43 % 0.0 in /  0 mm
10:41 7.0 °F /  -13.9 °C -5.4 °F /  -20.8 °C 1015.8 in /  34395 hPa NNE 4.2 mph /  6.8 km/h 4.2 mph /  6.8 km/h 41 % 0.0 in /  0 mm
10:46 7.0 °F /  -13.9 °C -4.7 °F /  -20.4 °C 1015.8 in /  34395 hPa NW 4.2 mph /  6.8 km/h 4.2 mph /  6.8 km/h 43 % 0.0 in /  0 mm
10:51 7.2 °F /  -13.8 °C -4.9 °F /  -20.5 °C 1015.8 in /  34395 hPa NNW 11.1 mph /  17.9 km/h 11.1 mph /  17.9 km/h 42 % 0.0 in /  0 mm
10:56 7.6 °F /  -13.6 °C -4.8 °F /  -20.4 °C 1015.8 in /  34395 hPa ENE 7.4 mph /  11.9 km/h 7.4 mph /  11.9 km/h 41 % 0.0 in /  0 mm
11:01 7.9 °F /  -13.4 °C -4.6 °F /  -20.3 °C 1016.8 in /  34428.8 hPa West 5.6 mph /  9 km/h 5.6 mph /  9 km/h 41 % 0.0 in /  0 mm
11:06 8.1 °F /  -13.3 °C -4.4 °F /  -20.2 °C 1016.8 in /  34428.8 hPa SW 14.8 mph /  23.8 km/h 14.8 mph /  23.8 km/h 41 % 0.0 in /  0 mm
11:11 8.0 °F /  -13.3 °C -4.8 °F /  -20.4 °C 1016.8 in /  34428.8 hPa West 7.4 mph /  11.9 km/h 7.4 mph /  11.9 km/h 40 % 0.0 in /  0 mm
11:16 7.9 °F /  -13.4 °C -5.2 °F /  -20.7 °C 1015.8 in /  34395 hPa West 9.3 mph /  15 km/h 9.3 mph /  15 km/h 39 % 0.0 in /  0 mm
11:21 8.1 °F /  -13.3 °C -5.1 °F /  -20.6 °C 1015.8 in /  34395 hPa West 9.3 mph /  15 km/h 9.3 mph /  15 km/h 39 % 0.0 in /  0 mm
11:26 8.2 °F /  -13.2 °C -5.3 °F /  -20.7 °C 1015.8 in /  34395 hPa SSW 7.4 mph /  11.9 km/h 7.4 mph /  11.9 km/h 38 % 0.0 in /  0 mm
11:31 8.4 °F /  -13.1 °C -5.1 °F /  -20.6 °C 1015.8 in /  34395 hPa WSW 9.3 mph /  15 km/h 9.3 mph /  15 km/h 38 % 0.0 in /  0 mm
11:36 8.5 °F /  -13.1 °C -5.7 °F /  -20.9 °C 1015.8 in /  34395 hPa ENE 5.6 mph /  9 km/h 5.6 mph /  9 km/h 36 % 0.0 in /  0 mm
11:41 8.7 °F /  -12.9 °C -5.6 °F /  -20.9 °C 1015.8 in /  34395 hPa NNW 5.8 mph /  9.3 km/h 5.8 mph /  9.3 km/h 36 % 0.0 in /  0 mm
11:46 8.6 °F /  -13 °C -5.7 °F /  -20.9 °C 1015.8 in /  34395 hPa WNW 9.3 mph /  15 km/h 9.3 mph /  15 km/h 36 % 0.0 in /  0 mm
11:51 8.9 °F /  -12.8 °C -5.8 °F /  -21 °C 1015.8 in /  34395 hPa NNE 13.0 mph /  20.9 km/h 13.0 mph /  20.9 km/h 35 % 0.0 in /  0 mm
11:56 8.9 °F /  -12.8 °C -5.8 °F /  -21 °C 1015.8 in /  34395 hPa ENE 7.4 mph /  11.9 km/h 7.4 mph /  11.9 km/h 35 % 0.0 in /  0 mm
12:01 8.9 °F /  -12.8 °C -6.2 °F /  -21.2 °C 1015.8 in /  34395 hPa SSW 6.1 mph /  9.8 km/h 6.1 mph /  9.8 km/h 34 % 0.0 in /  0 mm
12:06 9.0 °F /  -12.8 °C -6.1 °F /  -21.2 °C 1015.8 in /  34395 hPa NNE 9.3 mph /  15 km/h 9.3 mph /  15 km/h 34 % 0.0 in /  0 mm
12:11 9.2 °F /  -12.7 °C -6.3 °F /  -21.3 °C 1015.8 in /  34395 hPa SW 5.6 mph /  9 km/h 5.6 mph /  9 km/h 33 % 0.0 in /  0 mm
12:16 9.3 °F /  -12.6 °C -5.8 °F /  -21 °C 1015.8 in /  34395 hPa NW 5.8 mph /  9.3 km/h 5.8 mph /  9.3 km/h 34 % 0.0 in /  0 mm
12:21 9.3 °F /  -12.6 °C -6.2 °F /  -21.2 °C 1015.8 in /  34395 hPa NW 7.9 mph /  12.7 km/h 7.9 mph /  12.7 km/h 33 % 0.0 in /  0 mm
12:26 9.2 °F /  -12.7 °C -6.7 °F /  -21.5 °C 1015.8 in /  34395 hPa WSW 7.4 mph /  11.9 km/h 7.4 mph /  11.9 km/h 32 % 0.0 in /  0 mm
12:31 9.5 °F /  -12.5 °C -6.0 °F /  -21.1 °C 1015.8 in /  34395 hPa WNW 7.4 mph /  11.9 km/h 7.4 mph /  11.9 km/h 33 % 0.0 in /  0 mm
12:36 9.5 °F /  -12.5 °C -6.0 °F /  -21.1 °C 1015.8 in /  34395 hPa SW 9.3 mph /  15 km/h 9.3 mph /  15 km/h 33 % 0.0 in /  0 mm
12:41 9.6 °F /  -12.4 °C -6.3 °F /  -21.3 °C 1015.8 in /  34395 hPa NNW 5.6 mph /  9 km/h 5.6 mph /  9 km/h 32 % 0.0 in /  0 mm
12:46 9.9 °F /  -12.3 °C -5.7 °F /  -20.9 °C 1015.8 in /  34395 hPa WNW 9.3 mph /  15 km/h 9.3 mph /  15 km/h 33 % 0.0 in /  0 mm
12:51 10.0 °F /  -12.2 °C -5.6 °F /  -20.9 °C 1015.8 in /  34395 hPa ENE 9.3 mph /  15 km/h 9.3 mph /  15 km/h 33 % 0.0 in /  0 mm
12:56 10.0 °F /  -12.2 °C -5.9 °F /  -21.1 °C 1015.8 in /  34395 hPa West 4.2 mph /  6.8 km/h 4.2 mph /  6.8 km/h 32 % 0.0 in /  0 mm
13:01 10.2 °F /  -12.1 °C -5.4 °F /  -20.8 °C 1014.8 in /  34361.1 hPa West 5.3 mph /  8.5 km/h 5.3 mph /  8.5 km/h 33 % 0.0 in /  0 mm
13:06 10.4 °F /  -12 °C -5.6 °F /  -20.9 °C 1014.8 in /  34361.1 hPa West 3.7 mph /  6 km/h 3.7 mph /  6 km/h 32 % 0.0 in /  0 mm
13:11 10.3 °F /  -12.1 °C -5.7 °F /  -20.9 °C 1014.8 in /  34361.1 hPa WNW 5.6 mph /  9 km/h 5.6 mph /  9 km/h 32 % 0.0 in /  0 mm
13:16 10.3 °F /  -12.1 °C -6.1 °F /  -21.2 °C 1014.8 in /  34361.1 hPa North 11.1 mph /  17.9 km/h 11.1 mph /  17.9 km/h 31 % 0.0 in /  0 mm
13:21 10.3 °F /  -12.1 °C -6.1 °F /  -21.2 °C 1014.8 in /  34361.1 hPa WSW 7.4 mph /  11.9 km/h 7.4 mph /  11.9 km/h 31 % 0.0 in /  0 mm
13:26 10.3 °F /  -12.1 °C -6.1 °F /  -21.2 °C 1014.8 in /  34361.1 hPa WNW 11.1 mph /  17.9 km/h 11.1 mph /  17.9 km/h 31 % 0.0 in /  0 mm
13:31 10.5 °F /  -11.9 °C -5.9 °F /  -21.1 °C 1014.8 in /  34361.1 hPa WNW 16.7 mph /  26.9 km/h 16.7 mph /  26.9 km/h 31 % 0.0 in /  0 mm
13:36 10.4 °F /  -12 °C -6.4 °F /  -21.3 °C 1014.8 in /  34361.1 hPa WSW 5.6 mph /  9 km/h 5.6 mph /  9 km/h 30 % 0.0 in /  0 mm
13:41 10.6 °F /  -11.9 °C -6.3 °F /  -21.3 °C 1014.8 in /  34361.1 hPa East 9.3 mph /  15 km/h 9.3 mph /  15 km/h 30 % 0.0 in /  0 mm
13:46 10.1 °F /  -12.2 °C -7.2 °F /  -21.8 °C 1013.8 in /  34327.3 hPa ENE 5.6 mph /  9 km/h 6.9 mph /  11.1 km/h 29 % 0.0 in /  0 mm
13:51 10.1 °F /  -12.2 °C -7.2 °F /  -21.8 °C 1013.8 in /  34327.3 hPa NNW 5.6 mph /  9 km/h 5.6 mph /  9 km/h 29 % 0.0 in /  0 mm
13:56 10.6 °F /  -11.9 °C -6.3 °F /  -21.3 °C 1013.8 in /  34327.3 hPa WNW 3.7 mph /  6 km/h 3.7 mph /  6 km/h 30 % 0.0 in /  0 mm
14:01 10.6 °F /  -11.9 °C -6.7 °F /  -21.5 °C 1013.8 in /  34327.3 hPa West 3.7 mph /  6 km/h 3.7 mph /  6 km/h 29 % 0.0 in /  0 mm
14:06 10.4 °F /  -12 °C -6.9 °F /  -21.6 °C 1013.8 in /  34327.3 hPa NNE 7.9 mph /  12.7 km/h 7.9 mph /  12.7 km/h 29 % 0.0 in /  0 mm
14:11 10.3 °F /  -12.1 °C -7.4 °F /  -21.9 °C 1013.8 in /  34327.3 hPa NNE 9.3 mph /  15 km/h 9.3 mph /  15 km/h 28 % 0.0 in /  0 mm
14:16 10.6 °F /  -11.9 °C -6.7 °F /  -21.5 °C 1013.8 in /  34327.3 hPa NNW 3.7 mph /  6 km/h 3.7 mph /  6 km/h 29 % 0.0 in /  0 mm
14:21 10.7 °F /  -11.8 °C -6.7 °F /  -21.5 °C 1013.8 in /  34327.3 hPa NNE 9.3 mph /  15 km/h 9.3 mph /  15 km/h 29 % 0.0 in /  0 mm
14:26 10.6 °F /  -11.9 °C -7.2 °F /  -21.8 °C 1013.8 in /  34327.3 hPa NNE 18.0 mph /  29 km/h 18.0 mph /  29 km/h 28 % 0.0 in /  0 mm
14:31 10.5 °F /  -11.9 °C -8.2 °F /  -22.3 °C 1013.8 in /  34327.3 hPa ENE 14.8 mph /  23.8 km/h 14.8 mph /  23.8 km/h 26 % 0.0 in /  0 mm
14:36 10.5 °F /  -11.9 °C -8.2 °F /  -22.3 °C 1013.8 in /  34327.3 hPa NNE 11.1 mph /  17.9 km/h 11.1 mph /  17.9 km/h 26 % 0.0 in /  0 mm
14:41 10.8 °F /  -11.8 °C -7.5 °F /  -21.9 °C 1013.8 in /  34327.3 hPa WNW 3.7 mph /  6 km/h 3.7 mph /  6 km/h 27 % 0.0 in /  0 mm
14:46 10.7 °F /  -11.8 °C -7.6 °F /  -22 °C 1013.8 in /  34327.3 hPa NE 7.4 mph /  11.9 km/h 7.4 mph /  11.9 km/h 27 % 0.0 in /  0 mm
14:51 10.7 °F /  -11.8 °C -8.1 °F /  -22.3 °C 1013.8 in /  34327.3 hPa NE 16.7 mph /  26.9 km/h 16.7 mph /  26.9 km/h 26 % 0.0 in /  0 mm
14:56 10.9 °F /  -11.7 °C -7.9 °F /  -22.2 °C 1013.8 in /  34327.3 hPa East 7.4 mph /  11.9 km/h 7.4 mph /  11.9 km/h 26 % 0.0 in /  0 mm
15:01 10.9 °F /  -11.7 °C -7.4 °F /  -21.9 °C 1013.8 in /  34327.3 hPa South 9.3 mph /  15 km/h 9.3 mph /  15 km/h 27 % 0.0 in /  0 mm
15:06 11.2 °F /  -11.6 °C -7.2 °F /  -21.8 °C 1013.8 in /  34327.3 hPa NNW 5.6 mph /  9 km/h 5.6 mph /  9 km/h 27 % 0.0 in /  0 mm
15:11 11.2 °F /  -11.6 °C -7.2 °F /  -21.8 °C 1013.8 in /  34327.3 hPa NNW 7.4 mph /  11.9 km/h 7.4 mph /  11.9 km/h 27 % 0.0 in /  0 mm
15:16 11.2 °F /  -11.6 °C -6.7 °F /  -21.5 °C 1013.8 in /  34327.3 hPa NW 3.7 mph /  6 km/h 3.9 mph /  6.3 km/h 28 % 0.0 in /  0 mm
15:21 11.2 °F /  -11.6 °C -7.2 °F /  -21.8 °C 1013.8 in /  34327.3 hPa NNW 2.6 mph /  4.2 km/h 2.6 mph /  4.2 km/h 27 % 0.0 in /  0 mm
15:26 11.1 °F /  -11.6 °C -7.7 °F /  -22.1 °C 1013.8 in /  34327.3 hPa SSE 5.3 mph /  8.5 km/h 5.3 mph /  8.5 km/h 26 % 0.0 in /  0 mm
15:31 11.1 °F /  -11.6 °C -7.2 °F /  -21.8 °C 1013.8 in /  34327.3 hPa North 5.6 mph /  9 km/h 5.6 mph /  9 km/h 27 % 0.0 in /  0 mm
15:36 11.2 °F /  -11.6 °C -7.2 °F /  -21.8 °C 1013.8 in /  34327.3 hPa WNW 5.6 mph /  9 km/h 5.6 mph /  9 km/h 27 % 0.0 in /  0 mm
15:41 11.5 °F /  -11.4 °C -6.4 °F /  -21.3 °C 1013.8 in /  34327.3 hPa NNE 5.6 mph /  9 km/h 5.6 mph /  9 km/h 28 % 0.0 in /  0 mm
15:46 11.2 °F /  -11.6 °C -7.6 °F /  -22 °C 1013.8 in /  34327.3 hPa NNE 1.9 mph /  3.1 km/h 1.9 mph /  3.1 km/h 26 % 0.0 in /  0 mm
15:51 11.0 °F /  -11.7 °C -8.3 °F /  -22.4 °C 1013.8 in /  34327.3 hPa ESE 5.6 mph /  9 km/h 5.6 mph /  9 km/h 25 % 0.0 in /  0 mm
15:56 10.8 °F /  -11.8 °C -8.5 °F /  -22.5 °C 1013.8 in /  34327.3 hPa ENE 5.6 mph /  9 km/h 5.6 mph /  9 km/h 25 % 0.0 in /  0 mm
16:01 10.9 °F /  -11.7 °C -7.9 °F /  -22.2 °C 1013.8 in /  34327.3 hPa ENE 7.4 mph /  11.9 km/h 7.4 mph /  11.9 km/h 26 % 0.0 in /  0 mm
16:06 11.3 °F /  -11.5 °C -7.6 °F /  -22 °C 1013.8 in /  34327.3 hPa NW 5.6 mph /  9 km/h 5.6 mph /  9 km/h 26 % 0.0 in /  0 mm
16:11 11.2 °F /  -11.6 °C -7.6 °F /  -22 °C 1013.8 in /  34327.3 hPa North 3.7 mph /  6 km/h 3.7 mph /  6 km/h 26 % 0.0 in /  0 mm
16:16 11.0 °F /  -11.7 °C -7.8 °F /  -22.1 °C 1013.8 in /  34327.3 hPa North 6.4 mph /  10.3 km/h 6.4 mph /  10.3 km/h 26 % 0.0 in /  0 mm
16:21 11.0 °F /  -11.7 °C -8.3 °F /  -22.4 °C 1013.8 in /  34327.3 hPa NNW 3.7 mph /  6 km/h 3.7 mph /  6 km/h 25 % 0.0 in /  0 mm
16:26 10.9 °F /  -11.7 °C -8.4 °F /  -22.4 °C 1013.8 in /  34327.3 hPa NNE 10.8 mph /  17.4 km/h 10.8 mph /  17.4 km/h 25 % 0.0 in /  0 mm
16:31 10.8 °F /  -11.8 °C -8.5 °F /  -22.5 °C 1013.8 in /  34327.3 hPa WNW 5.3 mph /  8.5 km/h 5.3 mph /  8.5 km/h 25 % 0.0 in /  0 mm
16:36 10.8 °F /  -11.8 °C -8.5 °F /  -22.5 °C 1013.8 in /  34327.3 hPa NW 4.2 mph /  6.8 km/h 4.2 mph /  6.8 km/h 25 % 0.0 in /  0 mm
16:41 10.8 °F /  -11.8 °C -8.5 °F /  -22.5 °C 1013.8 in /  34327.3 hPa NW 3.7 mph /  6 km/h 3.7 mph /  6 km/h 25 % 0.0 in /  0 mm
16:46 10.8 °F /  -11.8 °C -8.5 °F /  -22.5 °C 1013.8 in /  34327.3 hPa NNW 3.7 mph /  6 km/h 3.7 mph /  6 km/h 25 % 0.0 in /  0 mm
16:51 10.8 °F /  -11.8 °C -8.0 °F /  -22.2 °C 1013.8 in /  34327.3 hPa NNW 3.9 mph /  6.3 km/h 3.9 mph /  6.3 km/h 26 % 0.0 in /  0 mm
16:56 10.8 °F /  -11.8 °C -8.5 °F /  -22.5 °C 1013.8 in /  34327.3 hPa ESE 3.7 mph /  6 km/h 3.7 mph /  6 km/h 25 % 0.0 in /  0 mm
17:01 10.8 °F /  -11.8 °C -8.0 °F /  -22.2 °C 1013.8 in /  34327.3 hPa WNW 3.9 mph /  6.3 km/h 3.9 mph /  6.3 km/h 26 % 0.0 in /  0 mm
17:06 11.0 °F /  -11.7 °C -7.8 °F /  -22.1 °C 1013.8 in /  34327.3 hPa WNW 3.5 mph /  5.6 km/h   26 % 0.0 in /  0 mm
17:11 10.9 °F /  -11.7 °C -7.9 °F /  -22.2 °C 1013.8 in /  34327.3 hPa WNW 3.7 mph /  6 km/h 3.7 mph /  6 km/h 26 % 0.0 in /  0 mm
17:16 10.8 °F /  -11.8 °C -8.5 °F /  -22.5 °C 1013.8 in /  34327.3 hPa WNW 3.7 mph /  6 km/h 3.7 mph /  6 km/h 25 % 0.0 in /  0 mm
17:21 10.9 °F /  -11.7 °C -8.4 °F /  -22.4 °C 1013.8 in /  34327.3 hPa NW 3.7 mph /  6 km/h 3.7 mph /  6 km/h 25 % 0.0 in /  0 mm
17:26 11.0 °F /  -11.7 °C -8.3 °F /  -22.4 °C 1013.8 in /  34327.3 hPa WNW 2.3 mph /  3.7 km/h 2.3 mph /  3.7 km/h 25 % 0.0 in /  0 mm
17:31 10.8 °F /  -11.8 °C -9.0 °F /  -22.8 °C 1013.8 in /  34327.3 hPa Calm     24 % 0.0 in /  0 mm
17:36 11.0 °F /  -11.7 °C -8.3 °F /  -22.4 °C 1013.8 in /  34327.3 hPa WNW 2.3 mph /  3.7 km/h 2.6 mph /  4.2 km/h 25 % 0.0 in /  0 mm
17:41 11.2 °F /  -11.6 °C -7.6 °F /  -22 °C 1013.8 in /  34327.3 hPa SW 3.5 mph /  5.6 km/h 3.5 mph /  5.6 km/h 26 % 0.0 in /  0 mm
17:46 11.0 °F /  -11.7 °C -7.8 °F /  -22.1 °C 1014.8 in /  34361.1 hPa WNW 9.3 mph /  15 km/h 9.3 mph /  15 km/h 26 % 0.0 in /  0 mm
17:51 10.8 °F /  -11.8 °C -7.5 °F /  -21.9 °C 1014.8 in /  34361.1 hPa WSW 9.5 mph /  15.3 km/h 9.5 mph /  15.3 km/h 27 % 0.0 in /  0 mm
17:56 10.6 °F /  -11.9 °C -7.7 °F /  -22.1 °C 1014.8 in /  34361.1 hPa WSW 5.6 mph /  9 km/h 5.6 mph /  9 km/h 27 % 0.0 in /  0 mm
18:01 10.2 °F /  -12.1 °C -8.5 °F /  -22.5 °C 1014.8 in /  34361.1 hPa SSW 3.7 mph /  6 km/h 3.9 mph /  6.3 km/h 26 % 0.0 in /  0 mm
18:06 9.9 °F /  -12.3 °C -8.3 °F /  -22.4 °C 1014.8 in /  34361.1 hPa WSW 5.6 mph /  9 km/h 5.6 mph /  9 km/h 27 % 0.0 in /  0 mm
18:11 9.6 °F /  -12.4 °C -8.5 °F /  -22.5 °C 1014.8 in /  34361.1 hPa WSW 7.4 mph /  11.9 km/h 7.4 mph /  11.9 km/h 27 % 0.0 in /  0 mm
18:16 9.4 °F /  -12.6 °C -8.7 °F /  -22.6 °C 1014.8 in /  34361.1 hPa SW 5.8 mph /  9.3 km/h 5.8 mph /  9.3 km/h 27 % 0.0 in /  0 mm
18:21 9.2 °F /  -12.7 °C -9.3 °F /  -22.9 °C 1014.8 in /  34361.1 hPa SW 9.3 mph /  15 km/h 9.3 mph /  15 km/h 26 % 0.0 in /  0 mm
18:26 9.1 °F /  -12.7 °C -9.4 °F /  -23 °C 1014.8 in /  34361.1 hPa WSW 7.4 mph /  11.9 km/h 7.4 mph /  11.9 km/h 26 % 0.0 in /  0 mm
18:31 8.9 °F /  -12.8 °C -9.6 °F /  -23.1 °C 1014.8 in /  34361.1 hPa WSW 6.9 mph /  11.1 km/h 6.9 mph /  11.1 km/h 26 % 0.0 in /  0 mm
18:36 8.7 °F /  -12.9 °C -10.3 °F /  -23.5 °C 1014.8 in /  34361.1 hPa NE 5.6 mph /  9 km/h 5.6 mph /  9 km/h 25 % 0.0 in /  0 mm
18:41 8.5 °F /  -13.1 °C -10.4 °F /  -23.6 °C 1014.8 in /  34361.1 hPa NNE 3.5 mph /  5.6 km/h 3.5 mph /  5.6 km/h 25 % 0.0 in /  0 mm
18:46 8.0 °F /  -13.3 °C -10.9 °F /  -23.8 °C 1014.8 in /  34361.1 hPa ENE 3.7 mph /  6 km/h 3.7 mph /  6 km/h 25 % 0.0 in /  0 mm
18:51 7.9 °F /  -13.4 °C -10.9 °F /  -23.8 °C 1014.8 in /  34361.1 hPa NW 3.7 mph /  6 km/h 3.7 mph /  6 km/h 25 % 0.0 in /  0 mm
18:56 7.9 °F /  -13.4 °C -10.9 °F /  -23.8 °C 1014.8 in /  34361.1 hPa North 1.9 mph /  3.1 km/h 1.9 mph /  3.1 km/h 25 % 0.0 in /  0 mm
19:01 7.8 °F /  -13.4 °C -11.1 °F /  -23.9 °C 1015.8 in /  34395 hPa ENE 3.7 mph /  6 km/h 3.7 mph /  6 km/h 25 % 0.0 in /  0 mm
19:06 7.6 °F /  -13.6 °C -10.7 °F /  -23.7 °C 1015.8 in /  34395 hPa North 1.9 mph /  3.1 km/h 1.9 mph /  3.1 km/h 26 % 0.0 in /  0 mm
19:11 7.4 °F /  -13.7 °C -10.4 °F /  -23.6 °C 1015.8 in /  34395 hPa NW 2.6 mph /  4.2 km/h 2.6 mph /  4.2 km/h 27 % 0.0 in /  0 mm
19:16 7.4 °F /  -13.7 °C -10.4 °F /  -23.6 °C 1015.8 in /  34395 hPa NNE 6.1 mph /  9.8 km/h 6.1 mph /  9.8 km/h 27 % 0.0 in /  0 mm
19:17 7.4 °F /  -13.7 °C -10.4 °F /  -23.6 °C 1015.8 in /  34395 hPa ENE 5.6 mph /  9 km/h 5.6 mph /  9 km/h 27 % 0.0 in /  0 mm
19:22 7.4 °F /  -13.7 °C -9.9 °F /  -23.3 °C 1015.8 in /  34395 hPa ENE 3.7 mph /  6 km/h 3.7 mph /  6 km/h 28 % 0.0 in /  0 mm
19:27 7.3 °F /  -13.7 °C -10.1 °F /  -23.4 °C 1015.8 in /  34395 hPa WNW 1.9 mph /  3.1 km/h 1.9 mph /  3.1 km/h 28 % 0.0 in /  0 mm
19:32 7.1 °F /  -13.8 °C -10.2 °F /  -23.4 °C 1015.8 in /  34395 hPa WNW 1.9 mph /  3.1 km/h   28 % 0.0 in /  0 mm
19:37 7.0 °F /  -13.9 °C -9.8 °F /  -23.2 °C 1015.8 in /  34395 hPa NNE 3.7 mph /  6 km/h 3.7 mph /  6 km/h 29 % 0.0 in /  0 mm
19:42 6.8 °F /  -14 °C -10.1 °F /  -23.4 °C 1016.8 in /  34428.8 hPa North 1.4 mph /  2.3 km/h   29 % 0.0 in /  0 mm
19:47 6.7 °F /  -14.1 °C -10.1 °F /  -23.4 °C 1016.8 in /  34428.8 hPa Calm     29 % 0.0 in /  0 mm
19:52 6.5 °F /  -14.2 °C -10.3 °F /  -23.5 °C 1016.8 in /  34428.8 hPa Calm     29 % 0.0 in /  0 mm
19:57 6.4 °F /  -14.2 °C -10.4 °F /  -23.6 °C 1015.8 in /  34395 hPa Calm     29 % 0.0 in /  0 mm
20:02 6.3 °F /  -14.3 °C -10.1 °F /  -23.4 °C 1015.8 in /  34395 hPa Calm     30 % 0.0 in /  0 mm
20:07 6.2 °F /  -14.3 °C -10.1 °F /  -23.4 °C 1015.8 in /  34395 hPa Calm     30 % 0.0 in /  0 mm
20:12 6.1 °F /  -14.4 °C -10.2 °F /  -23.4 °C 1015.8 in /  34395 hPa WNW 1.9 mph /  3.1 km/h 1.9 mph /  3.1 km/h 30 % 0.0 in /  0 mm
20:17 6.0 °F /  -14.4 °C -10.3 °F /  -23.5 °C 1015.8 in /  34395 hPa Calm     30 % 0.0 in /  0 mm
20:22 5.9 °F /  -14.5 °C -10.4 °F /  -23.6 °C 1015.8 in /  34395 hPa Calm     30 % 0.0 in /  0 mm
20:27 5.9 °F /  -14.5 °C -10.4 °F /  -23.6 °C 1015.8 in /  34395 hPa WNW 1.9 mph /  3.1 km/h 1.9 mph /  3.1 km/h 30 % 0.0 in /  0 mm
20:32 5.5 °F /  -14.7 °C -10.3 °F /  -23.5 °C 1015.8 in /  34395 hPa WSW 4.2 mph /  6.8 km/h 4.2 mph /  6.8 km/h 31 % 0.0 in /  0 mm
20:37 5.4 °F /  -14.8 °C -10.4 °F /  -23.6 °C 1015.8 in /  34395 hPa West 3.7 mph /  6 km/h 3.7 mph /  6 km/h 31 % 0.0 in /  0 mm
20:42 5.6 °F /  -14.7 °C -10.2 °F /  -23.4 °C 1015.8 in /  34395 hPa West 2.6 mph /  4.2 km/h 2.6 mph /  4.2 km/h 31 % 0.0 in /  0 mm
20:47 5.7 °F /  -14.6 °C -10.6 °F /  -23.7 °C 1015.8 in /  34395 hPa West 3.7 mph /  6 km/h 3.7 mph /  6 km/h 30 % 0.0 in /  0 mm
20:52 5.7 °F /  -14.6 °C -10.6 °F /  -23.7 °C 1015.8 in /  34395 hPa WSW 5.0 mph /  8 km/h 5.0 mph /  8 km/h 30 % 0.0 in /  0 mm
20:57 5.8 °F /  -14.6 °C -10.5 °F /  -23.6 °C 1015.8 in /  34395 hPa West 1.9 mph /  3.1 km/h   30 % 0.0 in /  0 mm
21:02 5.5 °F /  -14.7 °C -10.7 °F /  -23.7 °C 1015.8 in /  34395 hPa Calm     30 % 0.0 in /  0 mm
21:07 5.1 °F /  -14.9 °C -11.1 °F /  -23.9 °C 1015.8 in /  34395 hPa Calm     30 % 0.0 in /  0 mm
21:12 5.0 °F /  -15 °C -11.2 °F /  -24 °C 1015.8 in /  34395 hPa NW 1.9 mph /  3.1 km/h 1.9 mph /  3.1 km/h 30 % 0.0 in /  0 mm
21:17 5.1 °F /  -14.9 °C -11.1 °F /  -23.9 °C 1015.8 in /  34395 hPa West 3.7 mph /  6 km/h 3.7 mph /  6 km/h 30 % 0.0 in /  0 mm
21:22 5.0 °F /  -15 °C -11.2 °F /  -24 °C 1015.8 in /  34395 hPa West 1.9 mph /  3.1 km/h   30 % 0.0 in /  0 mm
21:27 4.7 °F /  -15.2 °C -11.4 °F /  -24.1 °C 1015.8 in /  34395 hPa ESE 3.7 mph /  6 km/h 3.7 mph /  6 km/h 30 % 0.0 in /  0 mm
21:32 4.4 °F /  -15.3 °C -11.7 °F /  -24.3 °C 1015.8 in /  34395 hPa SW 3.7 mph /  6 km/h 3.7 mph /  6 km/h 30 % 0.0 in /  0 mm
21:37 3.8 °F /  -15.7 °C -12.2 °F /  -24.6 °C 1015.8 in /  34395 hPa WSW 1.9 mph /  3.1 km/h   30 % 0.0 in /  0 mm
21:42 3.8 °F /  -15.7 °C -12.2 °F /  -24.6 °C 1015.8 in /  34395 hPa NNW 2.3 mph /  3.7 km/h   30 % 0.0 in /  0 mm
21:47 3.6 °F /  -15.8 °C -12.4 °F /  -24.7 °C 1015.8 in /  34395 hPa NE 3.7 mph /  6 km/h 3.7 mph /  6 km/h 30 % 0.0 in /  0 mm
21:52 3.5 °F /  -15.8 °C -12.5 °F /  -24.7 °C 1015.8 in /  34395 hPa WNW 1.9 mph /  3.1 km/h 1.9 mph /  3.1 km/h 30 % 0.0 in /  0 mm
21:57 3.2 °F /  -16 °C -12.3 °F /  -24.6 °C 1015.8 in /  34395 hPa SSE 1.9 mph /  3.1 km/h   31 % 0.0 in /  0 mm
22:02 3.2 °F /  -16 °C -12.3 °F /  -24.6 °C 1015.8 in /  34395 hPa NNE 1.9 mph /  3.1 km/h 1.9 mph /  3.1 km/h 31 % 0.0 in /  0 mm
22:07 3.1 °F /  -16.1 °C -12.4 °F /  -24.7 °C 1015.8 in /  34395 hPa WNW 2.3 mph /  3.7 km/h 2.3 mph /  3.7 km/h 31 % 0.0 in /  0 mm
22:12 3.0 °F /  -16.1 °C -12.5 °F /  -24.7 °C 1015.8 in /  34395 hPa WNW 1.9 mph /  3.1 km/h 1.9 mph /  3.1 km/h 31 % 0.0 in /  0 mm
22:17 3.1 °F /  -16.1 °C -12.4 °F /  -24.7 °C 1015.8 in /  34395 hPa WNW 3.7 mph /  6 km/h 3.7 mph /  6 km/h 31 % 0.0 in /  0 mm
22:22 3.1 °F /  -16.1 °C -12.4 °F /  -24.7 °C 1015.8 in /  34395 hPa WNW 1.9 mph /  3.1 km/h 2.3 mph /  3.7 km/h 31 % 0.0 in /  0 mm
22:27 3.1 °F /  -16.1 °C -12.4 °F /  -24.7 °C 1015.8 in /  34395 hPa NE 1.9 mph /  3.1 km/h 1.9 mph /  3.1 km/h 31 % 0.0 in /  0 mm
22:32 3.1 °F /  -16.1 °C -12.4 °F /  -24.7 °C 1015.8 in /  34395 hPa WSW 3.7 mph /  6 km/h 3.7 mph /  6 km/h 31 % 0.0 in /  0 mm
22:37 2.7 °F /  -16.3 °C -12.8 °F /  -24.9 °C 1015.8 in /  34395 hPa WSW 1.9 mph /  3.1 km/h 1.9 mph /  3.1 km/h 31 % 0.0 in /  0 mm
22:42 2.8 °F /  -16.2 °C -12.7 °F /  -24.8 °C 1016.8 in /  34428.8 hPa WSW 2.6 mph /  4.2 km/h 2.6 mph /  4.2 km/h 31 % 0.0 in /  0 mm
22:47 2.6 °F /  -16.3 °C -12.9 °F /  -24.9 °C 1016.8 in /  34428.8 hPa Calm     31 % 0.0 in /  0 mm
22:52 2.7 °F /  -16.3 °C -12.8 °F /  -24.9 °C 1016.8 in /  34428.8 hPa Calm     31 % 0.0 in /  0 mm
22:57 2.6 °F /  -16.3 °C -12.5 °F /  -24.7 °C 1016.8 in /  34428.8 hPa WSW 3.7 mph /  6 km/h 3.7 mph /  6 km/h 32 % 0.0 in /  0 mm
23:02 2.4 °F /  -16.4 °C -13.1 °F /  -25.1 °C 1016.8 in /  34428.8 hPa West 3.7 mph /  6 km/h 3.7 mph /  6 km/h 31 % 0.0 in /  0 mm
23:07 2.6 °F /  -16.3 °C -12.9 °F /  -24.9 °C 1016.8 in /  34428.8 hPa WNW 3.7 mph /  6 km/h 3.7 mph /  6 km/h 31 % 0.0 in /  0 mm
23:12 2.6 °F /  -16.3 °C -12.9 °F /  -24.9 °C 1016.8 in /  34428.8 hPa WNW 1.9 mph /  3.1 km/h   31 % 0.0 in /  0 mm
23:17 2.7 °F /  -16.3 °C -12.8 °F /  -24.9 °C 1016.8 in /  34428.8 hPa Calm     31 % 0.0 in /  0 mm
23:22 2.7 °F /  -16.3 °C -12.4 °F /  -24.7 °C 1016.8 in /  34428.8 hPa WNW 2.3 mph /  3.7 km/h 2.3 mph /  3.7 km/h 32 % 0.0 in /  0 mm
23:27 2.6 °F /  -16.3 °C -12.5 °F /  -24.7 °C 1016.8 in /  34428.8 hPa NW 2.6 mph /  4.2 km/h 2.6 mph /  4.2 km/h 32 % 0.0 in /  0 mm
23:32 2.6 °F /  -16.3 °C -12.5 °F /  -24.7 °C 1016.8 in /  34428.8 hPa Calm     32 % 0.0 in /  0 mm
23:37 2.7 °F /  -16.3 °C -12.8 °F /  -24.9 °C 1016.8 in /  34428.8 hPa ENE 3.7 mph /  6 km/h 3.7 mph /  6 km/h 31 % 0.0 in /  0 mm
23:42 2.5 °F /  -16.4 °C -12.6 °F /  -24.8 °C 1016.8 in /  34428.8 hPa SW 3.5 mph /  5.6 km/h 3.5 mph /  5.6 km/h 32 % 0.0 in /  0 mm
23:47 1.9 °F /  -16.7 °C -13.1 °F /  -25.1 °C 1016.8 in /  34428.8 hPa WSW 3.9 mph /  6.3 km/h 3.9 mph /  6.3 km/h 32 % 0.0 in /  0 mm
23:52 1.6 °F /  -16.9 °C -13.3 °F /  -25.2 °C 1016.8 in /  34428.8 hPa WSW 4.2 mph /  6.8 km/h 4.2 mph /  6.8 km/h 32 % 0.0 in /  0 mm
23:57 1.6 °F /  -16.9 °C -13.3 °F /  -25.2 °C 1016.8 in /  34428.8 hPa WNW 3.7 mph /  6 km/h 3.7 mph /  6 km/h 32 % 0.0 in /  0 mm
Meteo Sesrovires
Elogis d' Weather Underground - 1.75 mb

Guio original per  Jim McMurry - jmcmurry@mwt.net Adaptat per a la plantilla per  Wim van der Kuil - Leuven-Template.eu

Trobareu la nostra informacio del temps tambe a:

Weather Underground

AWEKAS